sensor_id;sensor_type;location;lat;lon;timestamp;temperature;humidity
6098;DHT22;3077;50.922;6.584;2023-04-05T00:00:58;5.30;99.90
6098;DHT22;3077;50.922;6.584;2023-04-05T00:03:24;5.20;99.90
6098;DHT22;3077;50.922;6.584;2023-04-05T00:05:50;5.30;99.90
6098;DHT22;3077;50.922;6.584;2023-04-05T00:08:19;5.20;99.90
6098;DHT22;3077;50.922;6.584;2023-04-05T00:10:49;5.20;99.90
6098;DHT22;3077;50.922;6.584;2023-04-05T00:13:15;5.20;99.90
6098;DHT22;3077;50.922;6.584;2023-04-05T00:15:41;5.20;99.90
6098;DHT22;3077;50.922;6.584;2023-04-05T00:18:06;5.10;99.90
6098;DHT22;3077;50.922;6.584;2023-04-05T00:20:32;5.10;99.90
6098;DHT22;3077;50.922;6.584;2023-04-05T00:22:58;5.00;99.90
6098;DHT22;3077;50.922;6.584;2023-04-05T00:25:24;5.00;99.90
6098;DHT22;3077;50.922;6.584;2023-04-05T00:27:50;5.00;99.90
6098;DHT22;3077;50.922;6.584;2023-04-05T00:30:16;5.00;99.90
6098;DHT22;3077;50.922;6.584;2023-04-05T00:32:48;4.90;99.90
6098;DHT22;3077;50.922;6.584;2023-04-05T00:35:14;4.80;99.90
6098;DHT22;3077;50.922;6.584;2023-04-05T00:37:40;4.90;99.90
6098;DHT22;3077;50.922;6.584;2023-04-05T00:40:06;4.80;99.90
6098;DHT22;3077;50.922;6.584;2023-04-05T00:42:32;4.70;99.90
6098;DHT22;3077;50.922;6.584;2023-04-05T00:44:57;4.80;99.90
6098;DHT22;3077;50.922;6.584;2023-04-05T00:47:23;4.80;99.90
6098;DHT22;3077;50.922;6.584;2023-04-05T00:49:49;4.70;99.90
6098;DHT22;3077;50.922;6.584;2023-04-05T00:52:15;4.70;99.90
6098;DHT22;3077;50.922;6.584;2023-04-05T00:54:42;4.70;99.90
6098;DHT22;3077;50.922;6.584;2023-04-05T00:57:09;4.70;99.90
6098;DHT22;3077;50.922;6.584;2023-04-05T00:59:35;4.70;99.90
6098;DHT22;3077;50.922;6.584;2023-04-05T01:02:07;4.70;99.90
6098;DHT22;3077;50.922;6.584;2023-04-05T01:04:37;4.80;99.90
6098;DHT22;3077;50.922;6.584;2023-04-05T01:09:58;4.80;99.90
6098;DHT22;3077;50.922;6.584;2023-04-05T01:12:32;4.80;99.90
6098;DHT22;3077;50.922;6.584;2023-04-05T01:14:59;4.80;99.90
6098;DHT22;3077;50.922;6.584;2023-04-05T01:17:27;4.80;99.90
6098;DHT22;3077;50.922;6.584;2023-04-05T01:19:56;4.80;99.90
6098;DHT22;3077;50.922;6.584;2023-04-05T01:30:38;4.70;99.90
6098;DHT22;3077;50.922;6.584;2023-04-05T01:35:47;4.70;99.90
6098;DHT22;3077;50.922;6.584;2023-04-05T01:38:18;4.70;99.90
6098;DHT22;3077;50.922;6.584;2023-04-05T01:40:46;4.80;99.90
6098;DHT22;3077;50.922;6.584;2023-04-05T01:43:13;4.80;99.90
6098;DHT22;3077;50.922;6.584;2023-04-05T01:45:40;4.70;99.90
6098;DHT22;3077;50.922;6.584;2023-04-05T01:48:06;4.70;99.90
6098;DHT22;3077;50.922;6.584;2023-04-05T01:50:32;4.70;99.90
6098;DHT22;3077;50.922;6.584;2023-04-05T01:52:57;4.70;99.90
6098;DHT22;3077;50.922;6.584;2023-04-05T01:55:23;4.70;99.90
6098;DHT22;3077;50.922;6.584;2023-04-05T01:57:48;4.80;99.90
6098;DHT22;3077;50.922;6.584;2023-04-05T02:00:14;4.80;99.90
6098;DHT22;3077;50.922;6.584;2023-04-05T02:02:40;4.70;99.90
6098;DHT22;3077;50.922;6.584;2023-04-05T02:05:06;5.30;99.90
6098;DHT22;3077;50.922;6.584;2023-04-05T02:07:32;4.80;99.90
6098;DHT22;3077;50.922;6.584;2023-04-05T02:09:57;4.80;99.90
6098;DHT22;3077;50.922;6.584;2023-04-05T02:12:23;4.80;99.90
6098;DHT22;3077;50.922;6.584;2023-04-05T02:14:48;4.70;99.90
6098;DHT22;3077;50.922;6.584;2023-04-05T02:17:15;4.60;99.90
6098;DHT22;3077;50.922;6.584;2023-04-05T02:19:42;4.50;99.90
6098;DHT22;3077;50.922;6.584;2023-04-05T02:22:11;4.40;99.90
6098;DHT22;3077;50.922;6.584;2023-04-05T02:24:37;4.40;99.90
6098;DHT22;3077;50.922;6.584;2023-04-05T02:27:02;4.30;99.90
6098;DHT22;3077;50.922;6.584;2023-04-05T02:29:28;4.30;99.90
6098;DHT22;3077;50.922;6.584;2023-04-05T02:31:54;4.30;99.90
6098;DHT22;3077;50.922;6.584;2023-04-05T02:34:20;4.40;99.90
6098;DHT22;3077;50.922;6.584;2023-04-05T02:36:49;4.30;99.90
6098;DHT22;3077;50.922;6.584;2023-04-05T02:39:15;4.30;99.90
6098;DHT22;3077;50.922;6.584;2023-04-05T02:41:41;4.30;99.90
6098;DHT22;3077;50.922;6.584;2023-04-05T02:44:06;4.20;99.90
6098;DHT22;3077;50.922;6.584;2023-04-05T02:46:32;4.20;99.90
6098;DHT22;3077;50.922;6.584;2023-04-05T02:49:00;4.20;99.90
6098;DHT22;3077;50.922;6.584;2023-04-05T02:51:25;4.10;99.90
6098;DHT22;3077;50.922;6.584;2023-04-05T02:53:51;4.10;99.90
6098;DHT22;3077;50.922;6.584;2023-04-05T02:56:17;4.00;99.90
6098;DHT22;3077;50.922;6.584;2023-04-05T02:58:43;4.00;99.90
6098;DHT22;3077;50.922;6.584;2023-04-05T03:01:10;4.00;99.90
6098;DHT22;3077;50.922;6.584;2023-04-05T03:03:35;3.90;99.90
6098;DHT22;3077;50.922;6.584;2023-04-05T03:06:05;3.90;99.90
6098;DHT22;3077;50.922;6.584;2023-04-05T03:08:41;3.80;99.90
6098;DHT22;3077;50.922;6.584;2023-04-05T03:11:13;3.80;99.90
6098;DHT22;3077;50.922;6.584;2023-04-05T03:13:39;3.80;99.90
6098;DHT22;3077;50.922;6.584;2023-04-05T03:16:05;3.70;99.90
6098;DHT22;3077;50.922;6.584;2023-04-05T03:18:31;3.60;99.90
6098;DHT22;3077;50.922;6.584;2023-04-05T03:20:57;3.50;99.90
6098;DHT22;3077;50.922;6.584;2023-04-05T03:23:27;3.60;99.90
6098;DHT22;3077;50.922;6.584;2023-04-05T03:26:00;3.50;99.90
6098;DHT22;3077;50.922;6.584;2023-04-05T03:28:26;3.50;99.90
6098;DHT22;3077;50.922;6.584;2023-04-05T03:30:52;3.40;99.90
6098;DHT22;3077;50.922;6.584;2023-04-05T03:33:19;3.30;99.90
6098;DHT22;3077;50.922;6.584;2023-04-05T03:35:45;3.40;99.90
6098;DHT22;3077;50.922;6.584;2023-04-05T03:38:10;3.30;99.90
6098;DHT22;3077;50.922;6.584;2023-04-05T03:40:36;3.40;99.90
6098;DHT22;3077;50.922;6.584;2023-04-05T03:43:02;3.40;99.90
6098;DHT22;3077;50.922;6.584;2023-04-05T03:45:27;3.30;99.90
6098;DHT22;3077;50.922;6.584;2023-04-05T03:47:57;3.20;99.90
6098;DHT22;3077;50.922;6.584;2023-04-05T03:50:23;3.10;99.90
6098;DHT22;3077;50.922;6.584;2023-04-05T03:52:51;3.00;99.90
6098;DHT22;3077;50.922;6.584;2023-04-05T03:55:16;2.90;99.90
6098;DHT22;3077;50.922;6.584;2023-04-05T03:57:42;2.90;99.90
6098;DHT22;3077;50.922;6.584;2023-04-05T04:00:09;2.80;99.90
6098;DHT22;3077;50.922;6.584;2023-04-05T04:02:48;2.70;99.90
6098;DHT22;3077;50.922;6.584;2023-04-05T04:05:15;2.70;99.90
6098;DHT22;3077;50.922;6.584;2023-04-05T04:07:41;2.60;99.90
6098;DHT22;3077;50.922;6.584;2023-04-05T04:10:08;2.60;99.90
6098;DHT22;3077;50.922;6.584;2023-04-05T04:12:35;2.70;99.90
6098;DHT22;3077;50.922;6.584;2023-04-05T04:15:01;2.60;99.90
6098;DHT22;3077;50.922;6.584;2023-04-05T04:17:31;2.50;99.90
6098;DHT22;3077;50.922;6.584;2023-04-05T04:19:57;2.40;99.90
6098;DHT22;3077;50.922;6.584;2023-04-05T04:22:24;2.40;99.90
6098;DHT22;3077;50.922;6.584;2023-04-05T04:24:53;2.30;99.90
6098;DHT22;3077;50.922;6.584;2023-04-05T04:27:19;2.30;99.90
6098;DHT22;3077;50.922;6.584;2023-04-05T04:29:48;2.10;99.90
6098;DHT22;3077;50.922;6.584;2023-04-05T04:32:17;2.10;99.90
6098;DHT22;3077;50.922;6.584;2023-04-05T04:34:51;2.10;99.90
6098;DHT22;3077;50.922;6.584;2023-04-05T04:37:20;2.10;99.90
6098;DHT22;3077;50.922;6.584;2023-04-05T04:39:47;2.70;99.90
6098;DHT22;3077;50.922;6.584;2023-04-05T04:42:16;1.90;99.90
6098;DHT22;3077;50.922;6.584;2023-04-05T04:44:47;1.90;99.90
6098;DHT22;3077;50.922;6.584;2023-04-05T04:47:13;1.90;99.90
6098;DHT22;3077;50.922;6.584;2023-04-05T04:49:42;1.90;99.90
6098;DHT22;3077;50.922;6.584;2023-04-05T04:52:08;1.80;99.90
6098;DHT22;3077;50.922;6.584;2023-04-05T04:54:35;1.90;99.90
6098;DHT22;3077;50.922;6.584;2023-04-05T04:57:01;1.80;99.90
6098;DHT22;3077;50.922;6.584;2023-04-05T04:59:27;1.80;99.90
6098;DHT22;3077;50.922;6.584;2023-04-05T05:01:53;1.80;99.90
6098;DHT22;3077;50.922;6.584;2023-04-05T05:04:19;1.80;99.90
6098;DHT22;3077;50.922;6.584;2023-04-05T05:06:44;1.80;99.90
6098;DHT22;3077;50.922;6.584;2023-04-05T05:09:10;1.80;99.90
6098;DHT22;3077;50.922;6.584;2023-04-05T05:11:36;1.70;99.90
6098;DHT22;3077;50.922;6.584;2023-04-05T05:14:01;1.70;99.90
6098;DHT22;3077;50.922;6.584;2023-04-05T05:16:27;1.70;99.90
6098;DHT22;3077;50.922;6.584;2023-04-05T05:18:53;1.70;99.90
6098;DHT22;3077;50.922;6.584;2023-04-05T05:21:19;1.70;99.90
6098;DHT22;3077;50.922;6.584;2023-04-05T05:23:45;1.70;99.90
6098;DHT22;3077;50.922;6.584;2023-04-05T05:26:11;1.70;99.90
6098;DHT22;3077;50.922;6.584;2023-04-05T05:28:38;1.70;99.90
6098;DHT22;3077;50.922;6.584;2023-04-05T05:31:04;1.70;99.90
6098;DHT22;3077;50.922;6.584;2023-04-05T05:33:30;1.70;99.90
6098;DHT22;3077;50.922;6.584;2023-04-05T05:35:56;1.80;99.90
6098;DHT22;3077;50.922;6.584;2023-04-05T05:38:22;1.70;99.90
6098;DHT22;3077;50.922;6.584;2023-04-05T05:40:48;1.70;99.90
6098;DHT22;3077;50.922;6.584;2023-04-05T05:43:19;1.70;99.90
6098;DHT22;3077;50.922;6.584;2023-04-05T05:45:45;1.70;99.90
6098;DHT22;3077;50.922;6.584;2023-04-05T05:48:10;1.70;99.90
6098;DHT22;3077;50.922;6.584;2023-04-05T05:50:36;1.80;99.90
6098;DHT22;3077;50.922;6.584;2023-04-05T05:53:03;1.80;99.90
6098;DHT22;3077;50.922;6.584;2023-04-05T05:55:29;1.80;99.90
6098;DHT22;3077;50.922;6.584;2023-04-05T05:57:55;1.90;99.90
6098;DHT22;3077;50.922;6.584;2023-04-05T06:00:21;1.90;99.90
6098;DHT22;3077;50.922;6.584;2023-04-05T06:02:47;1.90;99.90
6098;DHT22;3077;50.922;6.584;2023-04-05T06:05:13;1.90;99.90
6098;DHT22;3077;50.922;6.584;2023-04-05T06:07:38;2.00;99.90
6098;DHT22;3077;50.922;6.584;2023-04-05T06:10:05;2.10;99.90
6098;DHT22;3077;50.922;6.584;2023-04-05T06:12:30;2.10;99.90
6098;DHT22;3077;50.922;6.584;2023-04-05T06:14:56;2.10;99.90
6098;DHT22;3077;50.922;6.584;2023-04-05T06:17:22;2.20;99.90
6098;DHT22;3077;50.922;6.584;2023-04-05T06:19:47;2.30;99.90
6098;DHT22;3077;50.922;6.584;2023-04-05T06:22:13;2.30;99.90
6098;DHT22;3077;50.922;6.584;2023-04-05T06:24:38;2.40;99.90
6098;DHT22;3077;50.922;6.584;2023-04-05T06:27:04;3.00;99.90
6098;DHT22;3077;50.922;6.584;2023-04-05T06:29:29;2.50;99.90
6098;DHT22;3077;50.922;6.584;2023-04-05T06:31:55;2.60;99.90
6098;DHT22;3077;50.922;6.584;2023-04-05T06:34:21;2.60;99.90
6098;DHT22;3077;50.922;6.584;2023-04-05T06:36:48;2.70;99.90
6098;DHT22;3077;50.922;6.584;2023-04-05T06:39:13;2.80;99.90
6098;DHT22;3077;50.922;6.584;2023-04-05T06:41:39;3.00;99.90
6098;DHT22;3077;50.922;6.584;2023-04-05T06:44:05;3.00;99.90
6098;DHT22;3077;50.922;6.584;2023-04-05T06:46:30;3.00;99.90
6098;DHT22;3077;50.922;6.584;2023-04-05T06:48:57;3.00;99.90
6098;DHT22;3077;50.922;6.584;2023-04-05T06:51:23;3.10;99.90
6098;DHT22;3077;50.922;6.584;2023-04-05T06:53:50;3.20;99.90
6098;DHT22;3077;50.922;6.584;2023-04-05T06:56:15;3.30;99.90
6098;DHT22;3077;50.922;6.584;2023-04-05T06:58:41;3.40;99.90
6098;DHT22;3077;50.922;6.584;2023-04-05T07:01:06;3.50;99.90
6098;DHT22;3077;50.922;6.584;2023-04-05T07:03:32;3.60;99.90
6098;DHT22;3077;50.922;6.584;2023-04-05T07:05:59;3.70;99.90
6098;DHT22;3077;50.922;6.584;2023-04-05T07:08:29;3.80;99.90
6098;DHT22;3077;50.922;6.584;2023-04-05T07:10:55;3.90;99.90
6098;DHT22;3077;50.922;6.584;2023-04-05T07:13:22;3.90;99.90
6098;DHT22;3077;50.922;6.584;2023-04-05T07:15:48;3.90;99.90
6098;DHT22;3077;50.922;6.584;2023-04-05T07:18:13;3.90;99.90
6098;DHT22;3077;50.922;6.584;2023-04-05T07:20:40;3.90;99.90
6098;DHT22;3077;50.922;6.584;2023-04-05T07:23:05;4.00;99.90
6098;DHT22;3077;50.922;6.584;2023-04-05T07:25:32;4.10;99.90
6098;DHT22;3077;50.922;6.584;2023-04-05T07:27:57;4.20;99.90
6098;DHT22;3077;50.922;6.584;2023-04-05T07:30:25;4.30;99.90
6098;DHT22;3077;50.922;6.584;2023-04-05T07:32:51;4.40;99.90
6098;DHT22;3077;50.922;6.584;2023-04-05T07:35:16;4.40;99.90
6098;DHT22;3077;50.922;6.584;2023-04-05T07:37:42;4.50;99.90
6098;DHT22;3077;50.922;6.584;2023-04-05T07:40:08;4.60;99.90
6098;DHT22;3077;50.922;6.584;2023-04-05T07:42:35;4.70;99.90
6098;DHT22;3077;50.922;6.584;2023-04-05T07:45:01;4.70;99.90
6098;DHT22;3077;50.922;6.584;2023-04-05T07:47:26;4.90;99.90
6098;DHT22;3077;50.922;6.584;2023-04-05T07:49:52;5.00;99.90
6098;DHT22;3077;50.922;6.584;2023-04-05T07:52:18;5.00;99.90
6098;DHT22;3077;50.922;6.584;2023-04-05T07:54:43;5.10;99.90
6098;DHT22;3077;50.922;6.584;2023-04-05T07:57:15;5.20;99.90
6098;DHT22;3077;50.922;6.584;2023-04-05T07:59:42;5.10;99.90
6098;DHT22;3077;50.922;6.584;2023-04-05T08:02:08;5.30;99.90
6098;DHT22;3077;50.922;6.584;2023-04-05T08:04:33;5.40;99.90
6098;DHT22;3077;50.922;6.584;2023-04-05T08:06:59;6.00;99.90
6098;DHT22;3077;50.922;6.584;2023-04-05T08:09:25;5.50;99.90
6098;DHT22;3077;50.922;6.584;2023-04-05T08:11:51;5.60;99.90
6098;DHT22;3077;50.922;6.584;2023-04-05T08:14:17;5.80;99.90
6098;DHT22;3077;50.922;6.584;2023-04-05T08:16:51;5.90;99.90
6098;DHT22;3077;50.922;6.584;2023-04-05T08:19:19;6.70;99.90
6098;DHT22;3077;50.922;6.584;2023-04-05T08:22:16;5.90;99.90
6098;DHT22;3077;50.922;6.584;2023-04-05T08:24:45;5.70;99.90
6098;DHT22;3077;50.922;6.584;2023-04-05T08:27:13;5.90;99.90
6098;DHT22;3077;50.922;6.584;2023-04-05T08:29:39;6.00;99.90
6098;DHT22;3077;50.922;6.584;2023-04-05T08:32:05;6.00;99.90
6098;DHT22;3077;50.922;6.584;2023-04-05T08:34:30;6.00;99.90
6098;DHT22;3077;50.922;6.584;2023-04-05T08:36:59;6.10;99.90
6098;DHT22;3077;50.922;6.584;2023-04-05T08:39:24;6.20;99.90
6098;DHT22;3077;50.922;6.584;2023-04-05T08:42:02;6.20;99.90
6098;DHT22;3077;50.922;6.584;2023-04-05T08:44:30;6.20;99.90
6098;DHT22;3077;50.922;6.584;2023-04-05T08:46:57;6.10;99.90
6098;DHT22;3077;50.922;6.584;2023-04-05T08:49:24;6.20;99.90
6098;DHT22;3077;50.922;6.584;2023-04-05T08:51:50;6.50;99.90
6098;DHT22;3077;50.922;6.584;2023-04-05T08:54:16;6.50;99.90
6098;DHT22;3077;50.922;6.584;2023-04-05T08:56:42;6.60;99.90
6098;DHT22;3077;50.922;6.584;2023-04-05T08:59:11;6.70;99.90
6098;DHT22;3077;50.922;6.584;2023-04-05T09:01:44;6.80;99.90
6098;DHT22;3077;50.922;6.584;2023-04-05T09:04:20;6.90;99.90
6098;DHT22;3077;50.922;6.584;2023-04-05T09:06:51;7.00;99.90
6098;DHT22;3077;50.922;6.584;2023-04-05T09:09:17;7.20;99.90
6098;DHT22;3077;50.922;6.584;2023-04-05T09:11:44;7.00;99.90
6098;DHT22;3077;50.922;6.584;2023-04-05T09:14:10;6.90;99.90
6098;DHT22;3077;50.922;6.584;2023-04-05T09:16:38;6.90;99.90
6098;DHT22;3077;50.922;6.584;2023-04-05T09:19:04;6.90;99.90
6098;DHT22;3077;50.922;6.584;2023-04-05T09:21:30;7.20;99.90
6098;DHT22;3077;50.922;6.584;2023-04-05T09:24:35;7.20;99.90
6098;DHT22;3077;50.922;6.584;2023-04-05T09:29:30;7.30;99.90
6098;DHT22;3077;50.922;6.584;2023-04-05T09:31:56;7.50;99.90
6098;DHT22;3077;50.922;6.584;2023-04-05T09:34:23;7.60;99.90
6098;DHT22;3077;50.922;6.584;2023-04-05T09:36:48;7.60;99.90
6098;DHT22;3077;50.922;6.584;2023-04-05T09:39:14;8.70;99.90
6098;DHT22;3077;50.922;6.584;2023-04-05T09:42:09;8.40;99.90
6098;DHT22;3077;50.922;6.584;2023-04-05T09:47:18;9.20;99.90
6098;DHT22;3077;50.922;6.584;2023-04-05T09:49:44;8.90;99.90
6098;DHT22;3077;50.922;6.584;2023-04-05T09:52:20;9.00;99.90
6098;DHT22;3077;50.922;6.584;2023-04-05T09:54:46;9.20;99.90
6098;DHT22;3077;50.922;6.584;2023-04-05T09:57:14;9.50;99.90
6098;DHT22;3077;50.922;6.584;2023-04-05T09:59:41;9.50;99.90
6098;DHT22;3077;50.922;6.584;2023-04-05T10:02:07;9.50;99.90
6098;DHT22;3077;50.922;6.584;2023-04-05T10:04:39;9.60;99.90
6098;DHT22;3077;50.922;6.584;2023-04-05T10:07:09;9.60;99.90
6098;DHT22;3077;50.922;6.584;2023-04-05T10:09:38;9.70;99.90
6098;DHT22;3077;50.922;6.584;2023-04-05T10:12:04;9.80;99.90
6098;DHT22;3077;50.922;6.584;2023-04-05T10:14:30;9.80;99.90
6098;DHT22;3077;50.922;6.584;2023-04-05T10:22:31;10.30;99.60
6098;DHT22;3077;50.922;6.584;2023-04-05T10:25:07;10.50;98.40
6098;DHT22;3077;50.922;6.584;2023-04-05T10:27:44;10.60;95.00
6098;DHT22;3077;50.922;6.584;2023-04-05T10:30:12;10.80;97.00
6098;DHT22;3077;50.922;6.584;2023-04-05T10:32:56;10.80;99.90
6098;DHT22;3077;50.922;6.584;2023-04-05T10:35:35;10.80;96.40
6098;DHT22;3077;50.922;6.584;2023-04-05T10:38:25;10.60;96.10
6098;DHT22;3077;50.922;6.584;2023-04-05T10:40:58;10.60;98.80
6098;DHT22;3077;50.922;6.584;2023-04-05T10:43:26;10.90;98.50
6098;DHT22;3077;50.922;6.584;2023-04-05T10:45:53;10.70;92.20
6098;DHT22;3077;50.922;6.584;2023-04-05T10:48:43;10.80;86.00
6098;DHT22;3077;50.922;6.584;2023-04-05T10:51:13;10.70;87.20
6098;DHT22;3077;50.922;6.584;2023-04-05T10:53:40;11.00;84.60
6098;DHT22;3077;50.922;6.584;2023-04-05T10:56:08;11.00;82.90
6098;DHT22;3077;50.922;6.584;2023-04-05T10:58:37;11.10;85.90
6098;DHT22;3077;50.922;6.584;2023-04-05T11:01:11;11.30;84.30
6098;DHT22;3077;50.922;6.584;2023-04-05T11:06:30;11.40;71.50
6098;DHT22;3077;50.922;6.584;2023-04-05T11:08:59;11.50;72.80
6098;DHT22;3077;50.922;6.584;2023-04-05T11:11:25;11.70;78.80
6098;DHT22;3077;50.922;6.584;2023-04-05T11:13:55;11.90;89.20
6098;DHT22;3077;50.922;6.584;2023-04-05T11:16:23;12.00;83.40
6098;DHT22;3077;50.922;6.584;2023-04-05T11:19:02;11.90;80.20
6098;DHT22;3077;50.922;6.584;2023-04-05T11:21:28;11.90;72.10
6098;DHT22;3077;50.922;6.584;2023-04-05T11:24:01;11.90;72.40
6098;DHT22;3077;50.922;6.584;2023-04-05T11:29:06;11.90;65.80
6098;DHT22;3077;50.922;6.584;2023-04-05T11:31:32;12.10;65.20
6098;DHT22;3077;50.922;6.584;2023-04-05T11:34:04;12.20;65.70
6098;DHT22;3077;50.922;6.584;2023-04-05T11:42:02;12.20;60.20
6098;DHT22;3077;50.922;6.584;2023-04-05T11:44:38;12.20;58.00
6098;DHT22;3077;50.922;6.584;2023-04-05T11:47:03;12.20;50.40
6098;DHT22;3077;50.922;6.584;2023-04-05T11:49:32;12.50;44.00
6098;DHT22;3077;50.922;6.584;2023-04-05T11:51:58;12.60;38.80
6098;DHT22;3077;50.922;6.584;2023-04-05T11:54:34;13.20;34.40
6098;DHT22;3077;50.922;6.584;2023-04-05T11:57:00;14.00;28.50
6098;DHT22;3077;50.922;6.584;2023-04-05T11:59:35;15.10;26.50
6098;DHT22;3077;50.922;6.584;2023-04-05T12:02:14;16.00;27.70
6098;DHT22;3077;50.922;6.584;2023-04-05T12:04:43;16.20;24.30
6098;DHT22;3077;50.922;6.584;2023-04-05T12:07:18;17.90;23.50
6098;DHT22;3077;50.922;6.584;2023-04-05T12:10:08;18.40;18.00
6098;DHT22;3077;50.922;6.584;2023-04-05T12:12:39;18.70;13.20
6098;DHT22;3077;50.922;6.584;2023-04-05T12:15:21;19.20;10.90
6098;DHT22;3077;50.922;6.584;2023-04-05T12:17:49;19.80;9.00
6098;DHT22;3077;50.922;6.584;2023-04-05T12:20:18;20.40;7.40
6098;DHT22;3077;50.922;6.584;2023-04-05T12:22:45;20.40;5.40
6098;DHT22;3077;50.922;6.584;2023-04-05T12:25:13;20.40;5.00
6098;DHT22;3077;50.922;6.584;2023-04-05T12:27:40;20.50;3.30
6098;DHT22;3077;50.922;6.584;2023-04-05T12:30:10;20.80;5.70
6098;DHT22;3077;50.922;6.584;2023-04-05T12:32:43;21.20;1.10
6098;DHT22;3077;50.922;6.584;2023-04-05T12:35:17;21.80;4.00
6098;DHT22;3077;50.922;6.584;2023-04-05T12:37:42;22.30;1.00
6098;DHT22;3077;50.922;6.584;2023-04-05T12:40:09;22.70;1.00
6098;DHT22;3077;50.922;6.584;2023-04-05T12:42:36;23.00;1.00
6098;DHT22;3077;50.922;6.584;2023-04-05T12:45:04;23.20;1.00
6098;DHT22;3077;50.922;6.584;2023-04-05T12:47:34;23.60;1.00
6098;DHT22;3077;50.922;6.584;2023-04-05T12:50:11;23.60;1.00
6098;DHT22;3077;50.922;6.584;2023-04-05T12:52:37;23.40;1.00
6098;DHT22;3077;50.922;6.584;2023-04-05T12:55:02;23.20;1.00
6098;DHT22;3077;50.922;6.584;2023-04-05T12:57:31;23.10;1.00
6098;DHT22;3077;50.922;6.584;2023-04-05T12:59:57;23.10;1.00
6098;DHT22;3077;50.922;6.584;2023-04-05T13:02:22;22.70;1.00
6098;DHT22;3077;50.922;6.584;2023-04-05T13:04:48;23.00;1.00
6098;DHT22;3077;50.922;6.584;2023-04-05T13:07:13;23.10;1.00
6098;DHT22;3077;50.922;6.584;2023-04-05T13:09:39;23.60;1.00
6098;DHT22;3077;50.922;6.584;2023-04-05T13:12:05;24.00;1.00
6098;DHT22;3077;50.922;6.584;2023-04-05T13:14:30;23.80;1.00
6098;DHT22;3077;50.922;6.584;2023-04-05T13:16:56;23.60;1.00
6098;DHT22;3077;50.922;6.584;2023-04-05T13:19:21;24.00;1.00
6098;DHT22;3077;50.922;6.584;2023-04-05T13:21:48;23.40;1.00
6098;DHT22;3077;50.922;6.584;2023-04-05T13:24:13;23.40;1.00
6098;DHT22;3077;50.922;6.584;2023-04-05T13:26:39;23.80;1.00
6098;DHT22;3077;50.922;6.584;2023-04-05T13:29:05;23.80;1.00
6098;DHT22;3077;50.922;6.584;2023-04-05T13:31:31;23.70;1.00
6098;DHT22;3077;50.922;6.584;2023-04-05T13:33:57;22.60;1.00
6098;DHT22;3077;50.922;6.584;2023-04-05T13:36:23;22.70;1.00
6098;DHT22;3077;50.922;6.584;2023-04-05T13:38:48;23.50;1.00
6098;DHT22;3077;50.922;6.584;2023-04-05T13:41:14;24.10;1.00
6098;DHT22;3077;50.922;6.584;2023-04-05T13:43:40;24.70;1.00
6098;DHT22;3077;50.922;6.584;2023-04-05T13:46:05;25.40;1.00
6098;DHT22;3077;50.922;6.584;2023-04-05T13:48:31;25.60;1.00
6098;DHT22;3077;50.922;6.584;2023-04-05T13:50:57;25.00;1.00
6098;DHT22;3077;50.922;6.584;2023-04-05T13:53:22;24.20;1.00
6098;DHT22;3077;50.922;6.584;2023-04-05T13:55:48;23.40;1.00
6098;DHT22;3077;50.922;6.584;2023-04-05T13:58:13;23.20;1.00
6098;DHT22;3077;50.922;6.584;2023-04-05T14:00:39;23.70;1.00
6098;DHT22;3077;50.922;6.584;2023-04-05T14:03:05;24.50;1.00
6098;DHT22;3077;50.922;6.584;2023-04-05T14:05:30;25.20;1.00
6098;DHT22;3077;50.922;6.584;2023-04-05T14:07:56;25.80;1.00
6098;DHT22;3077;50.922;6.584;2023-04-05T14:10:22;25.80;1.00
6098;DHT22;3077;50.922;6.584;2023-04-05T14:12:48;25.80;1.00
6098;DHT22;3077;50.922;6.584;2023-04-05T14:15:14;26.40;1.00
6098;DHT22;3077;50.922;6.584;2023-04-05T14:17:40;26.50;1.00
6098;DHT22;3077;50.922;6.584;2023-04-05T14:20:06;26.40;1.00
6098;DHT22;3077;50.922;6.584;2023-04-05T14:22:32;26.60;1.00
6098;DHT22;3077;50.922;6.584;2023-04-05T14:24:58;26.20;1.00
6098;DHT22;3077;50.922;6.584;2023-04-05T14:27:23;26.50;1.00
6098;DHT22;3077;50.922;6.584;2023-04-05T14:29:52;26.30;1.00
6098;DHT22;3077;50.922;6.584;2023-04-05T14:32:22;27.10;1.00
6098;DHT22;3077;50.922;6.584;2023-04-05T14:34:48;27.50;1.00
6098;DHT22;3077;50.922;6.584;2023-04-05T14:37:14;27.90;1.00
6098;DHT22;3077;50.922;6.584;2023-04-05T14:39:40;28.10;1.00
6098;DHT22;3077;50.922;6.584;2023-04-05T14:42:05;28.00;1.00
6098;DHT22;3077;50.922;6.584;2023-04-05T14:44:31;27.70;1.00
6098;DHT22;3077;50.922;6.584;2023-04-05T14:46:57;27.60;1.00
6098;DHT22;3077;50.922;6.584;2023-04-05T14:49:22;27.50;1.00
6098;DHT22;3077;50.922;6.584;2023-04-05T14:51:48;27.20;1.00
6098;DHT22;3077;50.922;6.584;2023-04-05T14:54:14;27.60;1.00
6098;DHT22;3077;50.922;6.584;2023-04-05T14:56:39;28.00;1.00
6098;DHT22;3077;50.922;6.584;2023-04-05T14:59:05;28.00;1.00
6098;DHT22;3077;50.922;6.584;2023-04-05T15:01:30;27.90;1.00
6098;DHT22;3077;50.922;6.584;2023-04-05T15:03:56;27.50;1.00
6098;DHT22;3077;50.922;6.584;2023-04-05T15:06:22;27.50;1.00
6098;DHT22;3077;50.922;6.584;2023-04-05T15:08:47;26.40;1.00
6098;DHT22;3077;50.922;6.584;2023-04-05T15:11:13;25.00;1.00
6098;DHT22;3077;50.922;6.584;2023-04-05T15:13:39;24.90;1.00
6098;DHT22;3077;50.922;6.584;2023-04-05T15:16:05;24.90;1.00
6098;DHT22;3077;50.922;6.584;2023-04-05T15:18:30;23.70;1.00
6098;DHT22;3077;50.922;6.584;2023-04-05T15:20:56;22.50;1.00
6098;DHT22;3077;50.922;6.584;2023-04-05T15:23:21;21.90;1.00
6098;DHT22;3077;50.922;6.584;2023-04-05T15:25:47;21.70;1.00
6098;DHT22;3077;50.922;6.584;2023-04-05T15:28:13;22.00;1.00
6098;DHT22;3077;50.922;6.584;2023-04-05T15:30:38;21.70;1.00
6098;DHT22;3077;50.922;6.584;2023-04-05T15:33:04;22.00;1.00
6098;DHT22;3077;50.922;6.584;2023-04-05T15:35:30;22.90;1.00
6098;DHT22;3077;50.922;6.584;2023-04-05T15:37:56;23.10;1.00
6098;DHT22;3077;50.922;6.584;2023-04-05T15:40:22;23.50;1.00
6098;DHT22;3077;50.922;6.584;2023-04-05T15:42:48;23.60;1.00
6098;DHT22;3077;50.922;6.584;2023-04-05T15:45:14;23.00;1.00
6098;DHT22;3077;50.922;6.584;2023-04-05T15:47:39;22.90;1.00
6098;DHT22;3077;50.922;6.584;2023-04-05T15:50:05;22.60;1.00
6098;DHT22;3077;50.922;6.584;2023-04-05T15:52:32;22.70;1.00
6098;DHT22;3077;50.922;6.584;2023-04-05T15:54:58;21.80;1.00
6098;DHT22;3077;50.922;6.584;2023-04-05T15:57:24;20.90;1.00
6098;DHT22;3077;50.922;6.584;2023-04-05T15:59:49;20.90;1.00
6098;DHT22;3077;50.922;6.584;2023-04-05T16:02:17;21.40;1.00
6098;DHT22;3077;50.922;6.584;2023-04-05T16:04:42;21.90;1.00
6098;DHT22;3077;50.922;6.584;2023-04-05T16:07:08;22.50;1.00
6098;DHT22;3077;50.922;6.584;2023-04-05T16:09:34;23.20;1.00
6098;DHT22;3077;50.922;6.584;2023-04-05T16:12:00;23.40;1.00
6098;DHT22;3077;50.922;6.584;2023-04-05T16:14:26;23.60;1.00
6098;DHT22;3077;50.922;6.584;2023-04-05T16:16:52;23.00;1.00
6098;DHT22;3077;50.922;6.584;2023-04-05T16:19:18;22.80;1.00
6098;DHT22;3077;50.922;6.584;2023-04-05T16:21:44;23.40;1.00
6098;DHT22;3077;50.922;6.584;2023-04-05T16:24:10;23.30;1.00
6098;DHT22;3077;50.922;6.584;2023-04-05T16:26:36;23.00;1.00
6098;DHT22;3077;50.922;6.584;2023-04-05T16:29:01;22.60;1.00
6098;DHT22;3077;50.922;6.584;2023-04-05T16:31:27;21.70;1.00
6098;DHT22;3077;50.922;6.584;2023-04-05T16:33:53;21.50;1.00
6098;DHT22;3077;50.922;6.584;2023-04-05T16:36:19;21.90;1.00
6098;DHT22;3077;50.922;6.584;2023-04-05T16:38:44;22.00;1.00
6098;DHT22;3077;50.922;6.584;2023-04-05T16:41:12;21.20;1.00
6098;DHT22;3077;50.922;6.584;2023-04-05T16:43:37;21.00;1.00
6098;DHT22;3077;50.922;6.584;2023-04-05T16:46:03;21.40;1.00
6098;DHT22;3077;50.922;6.584;2023-04-05T16:48:29;22.00;1.00
6098;DHT22;3077;50.922;6.584;2023-04-05T16:50:56;22.40;1.00
6098;DHT22;3077;50.922;6.584;2023-04-05T16:53:22;23.00;1.00